createdAt,value
2018-12-18T00:00:42.964Z,37.00
2018-12-18T00:01:42.906Z,36.00
2018-12-18T00:02:42.889Z,37.10
2018-12-18T00:03:42.881Z,35.40
2018-12-18T00:04:42.872Z,37.00
2018-12-18T00:05:42.862Z,35.70
2018-12-18T00:06:42.867Z,34.40
2018-12-18T00:07:44.436Z,38.20
2018-12-18T00:08:42.848Z,35.60
2018-12-18T00:09:42.830Z,33.60
2018-12-18T00:10:42.804Z,36.90
2018-12-18T00:11:42.807Z,36.50
2018-12-18T00:12:42.788Z,35.20
2018-12-18T00:13:42.788Z,34.80
2018-12-18T00:14:42.778Z,36.10
2018-12-18T00:15:42.752Z,35.50
2018-12-18T00:16:42.785Z,36.80
2018-12-18T00:17:42.734Z,36.40
2018-12-18T00:18:42.735Z,35.10
2018-12-18T00:19:42.714Z,34.80
2018-12-18T00:20:42.715Z,32.90
2018-12-18T00:21:42.698Z,33.70
2018-12-18T00:22:42.683Z,34.30
2018-12-18T00:23:42.681Z,36.30
2018-12-18T00:24:42.665Z,34.90
2018-12-18T00:25:42.655Z,34.00
2018-12-18T00:26:42.769Z,34.70
2018-12-18T00:27:42.624Z,32.40
2018-12-18T00:28:42.614Z,33.20
2018-12-18T00:29:42.623Z,34.00
2018-12-18T00:30:42.597Z,33.90
2018-12-18T00:31:42.581Z,35.30
2018-12-18T00:32:42.596Z,33.40
2018-12-18T00:33:46.065Z,35.10
2018-12-18T00:34:42.561Z,33.10
2018-12-18T00:35:42.551Z,33.60
2018-12-18T00:36:42.529Z,34.00
2018-12-18T00:37:42.528Z,34.20
2018-12-18T00:38:42.510Z,35.10
2018-12-18T00:39:42.516Z,32.90
2018-12-18T00:40:42.495Z,33.20
2018-12-18T00:41:42.491Z,33.30
2018-12-18T00:42:42.480Z,35.30
2018-12-18T00:43:42.459Z,34.90
2018-12-18T00:44:42.461Z,34.20
2018-12-18T00:45:42.450Z,35.90
2018-12-18T00:46:42.486Z,36.10
2018-12-18T00:47:42.421Z,32.90
2018-12-18T00:48:42.417Z,36.80
2018-12-18T00:49:42.402Z,36.10
2018-12-18T00:50:42.396Z,35.10
2018-12-18T00:51:42.375Z,35.20
2018-12-18T00:52:42.383Z,34.00
2018-12-18T00:53:42.361Z,35.30
2018-12-18T00:54:42.343Z,32.90
2018-12-18T00:55:42.339Z,34.60
2018-12-18T00:56:42.331Z,32.90
2018-12-18T00:57:42.317Z,34.70
2018-12-18T00:58:42.299Z,32.60
2018-12-18T00:59:42.296Z,34.80
2018-12-18T01:00:42.278Z,33.00
2018-12-18T01:01:42.288Z,35.90
2018-12-18T01:02:42.274Z,33.50
2018-12-18T01:03:42.266Z,34.60
2018-12-18T01:04:42.241Z,34.90
2018-12-18T01:05:42.231Z,34.50
2018-12-18T01:06:42.221Z,35.40
2018-12-18T01:07:42.243Z,32.50
2018-12-18T01:08:42.194Z,32.40
2018-12-18T01:09:42.189Z,31.70
2018-12-18T01:10:42.183Z,33.70
2018-12-18T01:11:42.161Z,36.70
2018-12-18T01:12:42.157Z,33.80
2018-12-18T01:13:42.178Z,37.00
2018-12-18T01:14:42.133Z,34.90
2018-12-18T01:15:42.125Z,35.40
2018-12-18T01:16:42.109Z,34.90
2018-12-18T01:17:42.104Z,34.60
2018-12-18T01:18:42.159Z,32.40
2018-12-18T01:19:42.094Z,32.30
2018-12-18T01:20:42.083Z,31.80
2018-12-18T01:21:42.057Z,32.40
2018-12-18T01:22:42.056Z,32.40
2018-12-18T01:23:42.030Z,31.50
2018-12-18T01:24:42.037Z,32.40
2018-12-18T01:25:42.053Z,30.20
2018-12-18T01:26:41.999Z,28.80
2018-12-18T01:27:42.002Z,32.60
2018-12-18T01:28:41.981Z,30.50
2018-12-18T01:29:41.974Z,30.50
2018-12-18T01:30:41.960Z,31.00
2018-12-18T01:31:41.960Z,29.70
2018-12-18T01:32:41.951Z,34.10
2018-12-18T01:33:41.929Z,30.40
2018-12-18T01:34:41.928Z,30.80
2018-12-18T01:35:41.921Z,31.30
2018-12-18T01:36:41.907Z,31.50
2018-12-18T01:37:41.881Z,30.00
2018-12-18T01:38:41.871Z,31.40
2018-12-18T01:39:41.860Z,30.20
2018-12-18T01:40:41.868Z,30.90
2018-12-18T01:41:41.839Z,30.50
2018-12-18T01:42:41.873Z,27.80
2018-12-18T01:43:41.843Z,28.70
2018-12-18T01:44:41.807Z,29.00
2018-12-18T01:45:41.798Z,32.00
2018-12-18T01:46:41.792Z,30.20
2018-12-18T01:47:41.786Z,31.40
2018-12-18T01:48:41.789Z,31.40
2018-12-18T01:49:41.795Z,29.40
2018-12-18T01:50:41.761Z,30.20
2018-12-18T01:51:41.750Z,31.50
2018-12-18T01:52:41.739Z,30.70
2018-12-18T01:53:41.719Z,32.60
2018-12-18T01:54:41.721Z,29.20
2018-12-18T01:55:41.738Z,30.30
2018-12-18T01:56:41.697Z,28.80
2018-12-18T01:57:41.671Z,30.20
2018-12-18T01:58:41.661Z,28.60
2018-12-18T01:59:41.660Z,29.60
2018-12-18T02:00:41.652Z,29.70
2018-12-18T02:01:41.647Z,30.40
2018-12-18T02:02:41.623Z,29.40
2018-12-18T02:03:41.618Z,29.60
2018-12-18T02:04:41.649Z,29.60
2018-12-18T02:05:41.592Z,29.60
2018-12-18T02:06:41.592Z,31.30
2018-12-18T02:07:41.579Z,27.90
2018-12-18T02:08:41.556Z,30.20
2018-12-18T02:09:41.562Z,29.00
2018-12-18T02:10:48.618Z,29.30
2018-12-18T02:11:41.537Z,27.80
2018-12-18T02:12:41.523Z,29.50
2018-12-18T02:13:41.506Z,30.30
2018-12-18T02:14:41.501Z,27.80
2018-12-18T02:15:41.482Z,30.10
2018-12-18T02:16:41.490Z,30.80
2018-12-18T02:17:41.504Z,28.60
2018-12-18T02:18:41.517Z,28.70
2018-12-18T02:19:41.449Z,27.90
2018-12-18T02:20:41.465Z,29.10
2018-12-18T02:21:41.417Z,27.60
2018-12-18T02:22:41.412Z,30.20
2018-12-18T02:23:41.410Z,30.20
2018-12-18T02:24:41.403Z,29.80
2018-12-18T02:25:41.376Z,28.70
2018-12-18T02:26:41.370Z,30.20
2018-12-18T02:27:41.361Z,28.30
2018-12-18T02:28:41.369Z,31.00
2018-12-18T02:29:41.334Z,27.90
2018-12-18T02:30:41.329Z,28.60
2018-12-18T02:31:41.403Z,30.40
2018-12-18T02:32:41.318Z,30.00
2018-12-18T02:33:41.303Z,28.60
2018-12-18T02:34:41.316Z,28.60
2018-12-18T02:35:41.290Z,29.20
2018-12-18T02:36:41.263Z,27.80
2018-12-18T02:37:41.251Z,27.90
2018-12-18T02:38:41.255Z,30.10
2018-12-18T02:39:41.234Z,29.60
2018-12-18T02:40:41.243Z,28.40
2018-12-18T02:41:41.234Z,30.50
2018-12-18T02:42:41.218Z,29.80
2018-12-18T02:43:41.193Z,32.70
2018-12-18T02:44:41.203Z,28.70
2018-12-18T02:45:41.166Z,29.40
2018-12-18T02:46:41.174Z,29.40
2018-12-18T02:47:41.146Z,30.10
2018-12-18T02:48:41.148Z,31.50
2018-12-18T02:49:41.148Z,28.80
2018-12-18T02:50:41.135Z,29.40
2018-12-18T02:51:41.110Z,30.10
2018-12-18T02:52:41.094Z,32.00
2018-12-18T02:53:41.103Z,29.40
2018-12-18T02:54:41.085Z,29.20
2018-12-18T02:55:41.062Z,30.70
2018-12-18T02:56:41.072Z,32.10
2018-12-18T02:57:41.090Z,31.00
2018-12-18T02:58:41.041Z,28.80
2018-12-18T02:59:41.036Z,28.80
2018-12-18T03:00:41.018Z,29.70
2018-12-18T03:01:41.010Z,29.60
2018-12-18T03:02:40.999Z,30.90
2018-12-18T03:03:40.997Z,30.00
2018-12-18T03:04:40.973Z,31.00
2018-12-18T03:05:40.971Z,31.70
2018-12-18T03:06:40.958Z,31.30
2018-12-18T03:07:40.942Z,30.70
2018-12-18T03:08:40.947Z,31.30
2018-12-18T03:09:40.918Z,30.40
2018-12-18T03:10:40.917Z,33.70
2018-12-18T03:11:40.925Z,30.10
2018-12-18T03:12:40.888Z,33.60
2018-12-18T03:13:40.885Z,31.40
2018-12-18T03:14:40.880Z,32.30
2018-12-18T03:15:40.865Z,30.90
2018-12-18T03:16:40.893Z,32.40
2018-12-18T03:17:40.853Z,32.70
2018-12-18T03:18:40.828Z,31.40
2018-12-18T03:19:40.828Z,30.80
2018-12-18T03:20:40.805Z,30.10
2018-12-18T03:21:40.790Z,32.30
2018-12-18T03:22:40.805Z,30.50
2018-12-18T03:23:40.768Z,32.00
2018-12-18T03:24:40.809Z,29.70
2018-12-18T03:25:40.762Z,31.30
2018-12-18T03:26:40.750Z,33.00
2018-12-18T03:27:40.731Z,29.90
2018-12-18T03:28:40.731Z,32.00
2018-12-18T03:29:40.705Z,29.20
2018-12-18T03:30:40.717Z,31.50
2018-12-18T03:31:40.697Z,28.20
2018-12-18T03:32:40.675Z,31.60
2018-12-18T03:33:40.669Z,29.00
2018-12-18T03:34:40.657Z,29.20
2018-12-18T03:35:40.658Z,31.10
2018-12-18T03:36:40.635Z,30.60
2018-12-18T03:37:40.637Z,30.80
2018-12-18T03:38:40.611Z,28.40
2018-12-18T03:39:40.608Z,28.80
2018-12-18T03:40:40.596Z,29.70
2018-12-18T03:41:40.589Z,30.70
2018-12-18T03:42:40.579Z,32.90
2018-12-18T03:43:40.571Z,31.90
2018-12-18T03:44:40.563Z,28.90
2018-12-18T03:45:40.542Z,30.00
2018-12-18T03:46:40.552Z,30.30
2018-12-18T03:47:40.535Z,29.90
2018-12-18T03:48:40.516Z,30.10
2018-12-18T03:49:40.500Z,30.90
2018-12-18T03:50:40.485Z,30.10
2018-12-18T03:51:40.632Z,31.40
2018-12-18T03:52:40.478Z,33.30
2018-12-18T03:53:40.475Z,31.30
2018-12-18T03:54:40.459Z,32.10
2018-12-18T03:55:40.434Z,30.10
2018-12-18T03:56:40.438Z,30.70
2018-12-18T03:57:40.448Z,30.40
2018-12-18T03:58:40.410Z,31.00
2018-12-18T03:59:40.404Z,32.50
2018-12-18T04:00:40.382Z,32.60
2018-12-18T04:01:40.380Z,30.20
2018-12-18T04:02:40.402Z,31.10
2018-12-18T04:03:40.351Z,30.70
2018-12-18T04:04:40.349Z,31.40
2018-12-18T04:05:40.336Z,29.90
2018-12-18T04:06:40.333Z,31.30
2018-12-18T04:07:40.324Z,31.40
2018-12-18T04:08:40.323Z,32.90
2018-12-18T04:09:40.287Z,31.80
2018-12-18T04:10:40.280Z,30.20
2018-12-18T04:11:40.273Z,30.90
2018-12-18T04:12:40.267Z,31.20
2018-12-18T04:13:40.260Z,30.10
2018-12-18T04:14:40.265Z,33.70
2018-12-18T04:15:40.238Z,30.60
2018-12-18T04:16:40.218Z,33.10
2018-12-18T04:17:40.222Z,34.40
2018-12-18T04:18:40.204Z,31.20
2018-12-18T04:19:40.209Z,32.70
2018-12-18T04:20:40.180Z,32.80
2018-12-18T04:21:40.172Z,31.50
2018-12-18T04:22:40.157Z,33.30
2018-12-18T04:23:40.146Z,36.50
2018-12-18T04:24:40.145Z,32.80
2018-12-18T04:25:40.157Z,33.80
2018-12-18T04:26:40.115Z,33.40
2018-12-18T04:27:40.107Z,34.20
2018-12-18T04:28:40.087Z,32.70
2018-12-18T04:29:40.081Z,32.90
2018-12-18T04:30:40.077Z,32.50
2018-12-18T04:31:40.085Z,33.80
2018-12-18T04:32:40.064Z,32.60
2018-12-18T04:33:40.050Z,34.80
2018-12-18T04:34:43.069Z,32.50
2018-12-18T04:35:40.036Z,34.80
2018-12-18T04:36:40.015Z,34.70
2018-12-18T04:37:40.007Z,35.30
2018-12-18T04:38:39.986Z,32.80
2018-12-18T04:39:39.981Z,37.00
2018-12-18T04:40:39.966Z,36.50
2018-12-18T04:41:39.971Z,33.00
2018-12-18T04:42:39.955Z,41.80
2018-12-18T04:43:39.940Z,36.90
2018-12-18T04:44:39.921Z,37.70
2018-12-18T04:45:39.908Z,39.70
2018-12-18T04:46:39.907Z,37.10
2018-12-18T04:47:39.915Z,37.80
2018-12-18T04:48:39.879Z,39.40
2018-12-18T04:49:39.880Z,45.60
2018-12-18T04:50:39.873Z,43.50
2018-12-18T04:51:39.856Z,40.30
2018-12-18T04:52:39.846Z,39.00
2018-12-18T04:53:39.835Z,38.40
2018-12-18T04:54:39.825Z,36.40
2018-12-18T04:55:39.829Z,37.80
2018-12-18T04:56:39.799Z,41.30
2018-12-18T04:57:39.782Z,40.10
2018-12-18T04:58:39.787Z,40.30
2018-12-18T04:59:39.798Z,42.70
2018-12-18T05:00:39.774Z,39.50
2018-12-18T05:01:39.756Z,38.50
2018-12-18T05:02:39.773Z,43.40
2018-12-18T05:03:39.723Z,40.20
2018-12-18T05:04:39.716Z,40.60
2018-12-18T05:05:39.712Z,40.40
2018-12-18T05:06:39.700Z,43.90
2018-12-18T05:07:39.695Z,46.10
2018-12-18T05:08:39.699Z,46.10
2018-12-18T05:09:39.670Z,48.20
2018-12-18T05:10:39.648Z,47.10
2018-12-18T05:11:39.651Z,44.90
2018-12-18T05:12:40.226Z,47.00
2018-12-18T05:13:39.633Z,47.30
2018-12-18T05:14:39.614Z,47.20
2018-12-18T05:15:39.609Z,48.40
2018-12-18T05:16:39.595Z,46.70
2018-12-18T05:17:39.591Z,50.70
2018-12-18T05:18:39.608Z,44.70
2018-12-18T05:19:39.568Z,46.40
2018-12-18T05:20:39.547Z,56.10
2018-12-18T05:21:39.534Z,51.90
2018-12-18T05:22:39.528Z,53.70
2018-12-18T05:23:39.513Z,49.70
2018-12-18T05:24:39.513Z,50.50
2018-12-18T05:25:39.514Z,52.50
2018-12-18T05:26:39.488Z,54.10
2018-12-18T05:27:39.473Z,52.50
2018-12-18T05:28:39.462Z,54.50
2018-12-18T05:29:39.461Z,52.70
2018-12-18T05:30:39.446Z,49.80
2018-12-18T05:31:39.444Z,48.40
2018-12-18T05:32:39.432Z,50.60
2018-12-18T05:33:39.408Z,49.80
2018-12-18T05:34:39.443Z,59.00
2018-12-18T05:35:39.408Z,56.90
2018-12-18T05:36:39.375Z,52.30
2018-12-18T05:37:39.380Z,51.10
2018-12-18T05:38:39.359Z,54.70
2018-12-18T05:39:39.352Z,54.90
2018-12-18T05:40:39.342Z,52.50
2018-12-18T05:41:39.332Z,48.90
2018-12-18T05:42:39.323Z,47.80
2018-12-18T05:43:39.300Z,48.50
2018-12-18T05:44:39.290Z,49.60
2018-12-18T05:45:39.299Z,48.70
2018-12-18T05:46:39.269Z,51.70
2018-12-18T05:47:39.279Z,52.00
2018-12-18T05:48:39.263Z,50.10
2018-12-18T05:49:39.242Z,54.40
2018-12-18T05:50:39.235Z,55.90
2018-12-18T05:51:39.233Z,52.70
2018-12-18T05:52:39.218Z,49.80
2018-12-18T05:53:39.206Z,49.90
2018-12-18T05:54:39.199Z,51.20
2018-12-18T05:55:39.185Z,48.20
2018-12-18T05:56:39.262Z,50.50
2018-12-18T05:57:39.169Z,47.00
2018-12-18T05:58:39.149Z,48.40
2018-12-18T05:59:39.147Z,49.30
2018-12-18T06:00:39.141Z,48.10
2018-12-18T06:01:39.122Z,46.90
2018-12-18T06:02:39.113Z,43.50
2018-12-18T06:03:39.102Z,45.00
2018-12-18T06:04:39.081Z,48.10
2018-12-18T06:05:39.073Z,49.60
2018-12-18T06:06:39.076Z,44.80
2018-12-18T06:07:39.065Z,49.10
2018-12-18T06:08:39.064Z,50.40
2018-12-18T06:09:39.077Z,47.30
2018-12-18T06:10:39.030Z,45.90
2018-12-18T06:11:39.012Z,47.80
2018-12-18T06:12:39.024Z,48.30
2018-12-18T06:13:39.010Z,48.40
2018-12-18T06:14:38.990Z,45.50
2018-12-18T06:15:38.965Z,46.10
2018-12-18T06:16:38.966Z,47.40
2018-12-18T06:17:38.955Z,45.80
2018-12-18T06:18:38.950Z,46.80
2018-12-18T06:19:38.939Z,48.10
2018-12-18T06:20:38.923Z,50.10
2018-12-18T06:21:38.909Z,53.00
2018-12-18T06:22:38.908Z,49.10
2018-12-18T06:23:38.898Z,45.20
2018-12-18T06:24:38.887Z,48.50
2018-12-18T06:25:38.869Z,48.30
2018-12-18T06:26:38.855Z,45.90
2018-12-18T06:27:38.839Z,48.50
2018-12-18T06:28:38.844Z,49.40
2018-12-18T06:29:38.835Z,49.40
2018-12-18T06:30:38.810Z,47.10
2018-12-18T06:31:38.803Z,47.70
2018-12-18T06:32:38.793Z,50.40
2018-12-18T06:33:38.800Z,48.00
2018-12-18T06:34:38.819Z,50.40
2018-12-18T06:35:38.775Z,47.20
2018-12-18T06:36:38.755Z,49.10
2018-12-18T06:37:38.735Z,49.10
2018-12-18T06:38:38.728Z,45.70
2018-12-18T06:39:38.726Z,49.30
2018-12-18T06:40:38.751Z,50.70
2018-12-18T06:41:38.709Z,47.40
2018-12-18T06:42:38.687Z,46.00
2018-12-18T06:43:38.677Z,48.60
2018-12-18T06:44:38.678Z,48.30
2018-12-18T06:45:38.678Z,46.30
2018-12-18T06:46:38.654Z,52.60
2018-12-18T06:47:38.632Z,50.50
2018-12-18T06:48:38.639Z,47.40
2018-12-18T06:49:38.619Z,47.00
2018-12-18T06:50:38.602Z,45.50
2018-12-18T06:51:38.600Z,48.30
2018-12-18T06:52:38.594Z,48.40
2018-12-18T06:53:38.577Z,49.80
2018-12-18T06:54:38.570Z,49.10
2018-12-18T06:55:38.557Z,48.70
2018-12-18T06:56:38.592Z,45.20
2018-12-18T06:57:38.537Z,52.80
2018-12-18T06:58:38.515Z,45.90
2018-12-18T06:59:38.522Z,45.60
2018-12-18T07:00:38.504Z,50.60
2018-12-18T07:01:38.483Z,45.80
2018-12-18T07:02:38.514Z,49.90
2018-12-18T07:03:38.468Z,47.10
2018-12-18T07:04:38.453Z,50.30
2018-12-18T07:05:38.447Z,49.00
2018-12-18T07:06:38.432Z,45.30
2018-12-18T07:07:38.486Z,47.50
2018-12-18T07:08:38.436Z,45.90
2018-12-18T07:09:38.414Z,46.90
2018-12-18T07:10:38.400Z,48.10
2018-12-18T07:11:38.378Z,47.20
2018-12-18T07:12:38.389Z,48.00
2018-12-18T07:13:38.398Z,44.40
2018-12-18T07:14:38.347Z,48.60
2018-12-18T07:15:38.346Z,47.90
2018-12-18T07:16:38.332Z,44.70
2018-12-18T07:17:38.315Z,46.90
2018-12-18T07:18:38.309Z,52.50
2018-12-18T07:19:38.322Z,45.90
2018-12-18T07:20:38.303Z,46.70
2018-12-18T07:21:38.278Z,46.10
2018-12-18T07:22:38.276Z,49.40
2018-12-18T07:23:38.253Z,45.40
2018-12-18T07:24:38.260Z,46.40
2018-12-18T07:25:38.247Z,47.30
2018-12-18T07:26:38.236Z,46.20
2018-12-18T07:27:38.276Z,45.30
2018-12-18T07:28:38.216Z,47.90
2018-12-18T07:29:38.191Z,45.00
2018-12-18T07:30:38.189Z,46.40
2018-12-18T07:31:38.185Z,46.60
2018-12-18T07:32:38.174Z,48.20
2018-12-18T07:33:38.172Z,45.90
2018-12-18T07:34:38.171Z,47.90
2018-12-18T07:35:38.142Z,45.30
2018-12-18T07:36:38.132Z,44.20
2018-12-18T07:37:38.119Z,44.70
2018-12-18T07:38:38.110Z,45.20
2018-12-18T07:39:38.084Z,45.20
2018-12-18T07:40:38.120Z,43.30
2018-12-18T07:41:45.760Z,46.60
2018-12-18T07:42:38.059Z,47.10
2018-12-18T07:43:38.047Z,45.00
2018-12-18T07:44:38.038Z,42.50
2018-12-18T07:45:38.040Z,44.80
2018-12-18T07:46:38.015Z,42.90
2018-12-18T07:47:38.010Z,42.70
2018-12-18T07:48:38.001Z,44.90
2018-12-18T07:49:37.984Z,45.50
2018-12-18T07:51:46.759Z,36.90
2018-12-18T07:52:46.751Z,40.10
2018-12-18T07:53:46.744Z,44.50
2018-12-18T07:54:46.727Z,42.70
2018-12-18T07:55:46.729Z,43.80
2018-12-18T07:56:46.700Z,41.80
2018-12-18T07:57:46.690Z,42.90
2018-12-18T07:58:46.718Z,42.30
2018-12-18T07:59:46.684Z,40.90
2018-12-18T08:00:46.657Z,42.70
2018-12-18T08:01:46.658Z,42.50
2018-12-18T08:02:46.646Z,42.60
2018-12-18T08:03:46.628Z,41.70
2018-12-18T08:04:46.637Z,44.70
2018-12-18T08:05:46.617Z,40.50
2018-12-18T08:06:46.614Z,43.80
2018-12-18T08:07:46.579Z,45.60
2018-12-18T08:08:46.568Z,45.50
2018-12-18T08:09:46.579Z,41.80
2018-12-18T08:10:46.572Z,43.20
2018-12-18T08:11:46.546Z,42.90
2018-12-18T08:12:46.540Z,41.70
2018-12-18T08:13:46.520Z,42.70
2018-12-18T08:14:46.510Z,45.50
2018-12-18T08:15:46.517Z,43.30
2018-12-18T08:16:46.492Z,45.70
2018-12-18T08:17:46.479Z,38.50
2018-12-18T08:18:46.465Z,43.60
2018-12-18T08:19:46.462Z,42.30
2018-12-18T08:20:46.467Z,42.60
2018-12-18T08:21:46.450Z,41.00
2018-12-18T08:22:46.440Z,38.60
2018-12-18T08:23:46.407Z,41.30
2018-12-18T08:24:46.401Z,42.20
2018-12-18T08:25:46.402Z,38.60
2018-12-18T08:26:46.395Z,42.10
2018-12-18T08:27:46.371Z,41.60
2018-12-18T08:28:46.354Z,40.20
2018-12-18T08:29:46.343Z,40.10
2018-12-18T08:30:46.332Z,40.90
2018-12-18T08:31:46.368Z,42.30
2018-12-18T08:32:46.318Z,41.00
2018-12-18T08:33:46.309Z,39.60
2018-12-18T08:34:46.294Z,40.40
2018-12-18T08:35:46.288Z,40.60
2018-12-18T08:36:46.269Z,42.90
2018-12-18T08:37:46.310Z,41.00
2018-12-18T08:38:46.251Z,41.20
2018-12-18T08:39:46.234Z,40.30
2018-12-18T08:40:46.233Z,43.00
2018-12-18T08:41:46.212Z,38.20
2018-12-18T08:42:46.211Z,40.30
2018-12-18T08:43:46.220Z,38.20
2018-12-18T08:44:46.195Z,40.10
2018-12-18T08:45:46.180Z,39.70
2018-12-18T08:46:46.177Z,40.80
2018-12-18T08:47:46.154Z,37.60
2018-12-18T08:48:46.153Z,39.40
2018-12-18T08:49:46.152Z,39.40
2018-12-18T08:50:46.115Z,40.30
2018-12-18T08:51:46.121Z,41.40
2018-12-18T08:52:46.100Z,38.90
2018-12-18T08:53:46.088Z,41.90
2018-12-18T08:54:46.225Z,41.10
2018-12-18T08:55:46.077Z,41.80
2018-12-18T08:56:46.051Z,42.80
2018-12-18T08:57:46.055Z,41.80
2018-12-18T08:58:46.029Z,40.30
2018-12-18T08:59:46.026Z,44.00
2018-12-18T09:00:46.042Z,41.00
2018-12-18T09:01:45.996Z,43.20
2018-12-18T09:02:45.986Z,40.70
2018-12-18T09:03:45.991Z,40.40
2018-12-18T09:04:45.983Z,40.60
2018-12-18T09:05:45.966Z,41.10
2018-12-18T09:06:45.963Z,39.50
2018-12-18T09:07:45.947Z,40.20
2018-12-18T09:08:45.932Z,39.30
2018-12-18T09:09:45.916Z,39.70
2018-12-18T09:10:45.901Z,39.00
2018-12-18T09:11:45.903Z,41.60
2018-12-18T09:12:45.884Z,43.30
2018-12-18T09:13:45.867Z,43.00
2018-12-18T09:14:45.866Z,42.30
2018-12-18T09:15:45.844Z,39.50
2018-12-18T09:16:45.870Z,39.40
2018-12-18T09:17:45.828Z,38.50
2018-12-18T09:18:45.817Z,40.30
2018-12-18T09:19:45.818Z,41.00
2018-12-18T09:20:45.806Z,39.30
2018-12-18T09:21:45.788Z,37.40
2018-12-18T09:22:45.822Z,37.90
2018-12-18T09:23:45.770Z,40.10
2018-12-18T09:24:45.763Z,36.40
2018-12-18T09:25:45.745Z,39.10
2018-12-18T09:26:45.742Z,39.40
2018-12-18T09:27:45.727Z,35.80
2018-12-18T09:28:45.725Z,39.90
2018-12-18T09:29:45.714Z,35.70
2018-12-18T09:30:45.688Z,38.30
2018-12-18T09:31:45.690Z,39.80
2018-12-18T09:32:45.731Z,38.30
2018-12-18T09:33:45.681Z,39.00
2018-12-18T09:34:45.649Z,39.50
2018-12-18T09:35:49.650Z,38.00
2018-12-18T09:36:45.625Z,37.70
2018-12-18T09:37:45.624Z,39.20
2018-12-18T09:38:45.613Z,38.40
2018-12-18T09:39:45.588Z,38.00
2018-12-18T09:40:45.582Z,37.10
2018-12-18T09:41:45.576Z,36.50
2018-12-18T09:42:45.603Z,39.60
2018-12-18T09:43:45.559Z,38.00
2018-12-18T09:44:45.551Z,37.60
2018-12-18T09:45:45.535Z,37.70
2018-12-18T09:46:45.528Z,37.10
2018-12-18T09:47:45.513Z,35.90
2018-12-18T09:48:45.545Z,36.60
2018-12-18T09:49:45.492Z,39.20
2018-12-18T09:50:45.480Z,36.80
2018-12-18T09:51:45.479Z,38.30
2018-12-18T09:52:45.459Z,36.50
2018-12-18T09:53:45.444Z,36.70
2018-12-18T09:54:45.440Z,37.00
2018-12-18T09:55:45.419Z,37.90
2018-12-18T09:56:45.412Z,37.00
2018-12-18T09:57:45.407Z,35.00
2018-12-18T09:58:45.385Z,37.10
2018-12-18T09:59:45.430Z,36.10
2018-12-18T10:00:45.363Z,38.40
2018-12-18T10:01:45.360Z,37.50
2018-12-18T10:02:45.353Z,36.90
2018-12-18T10:03:45.332Z,37.10
2018-12-18T10:04:45.336Z,34.40
2018-12-18T10:05:45.346Z,35.60
2018-12-18T10:06:45.327Z,34.10
2018-12-18T10:07:45.305Z,36.30
2018-12-18T10:08:45.281Z,36.70
2018-12-18T10:09:45.289Z,36.50
2018-12-18T10:10:45.272Z,36.40
2018-12-18T10:11:45.270Z,35.70
2018-12-18T10:12:45.252Z,36.70
2018-12-18T10:13:45.240Z,37.00
2018-12-18T10:14:45.221Z,36.70
2018-12-18T10:15:45.220Z,37.10
2018-12-18T10:16:45.242Z,35.90
2018-12-18T10:17:45.198Z,35.20
2018-12-18T10:18:45.239Z,38.70
2018-12-18T10:19:45.176Z,36.20
2018-12-18T10:20:45.161Z,34.40
2018-12-18T10:21:45.145Z,35.90
2018-12-18T10:22:45.143Z,34.20
2018-12-18T10:23:45.118Z,34.30
2018-12-18T10:24:45.109Z,33.30
2018-12-18T10:25:45.103Z,36.80
2018-12-18T10:26:45.088Z,35.60
2018-12-18T10:27:45.114Z,39.40
2018-12-18T10:28:45.075Z,35.80
2018-12-18T10:29:45.064Z,34.10
2018-12-18T10:30:45.053Z,34.50
2018-12-18T10:31:45.039Z,37.00
2018-12-18T10:32:45.068Z,35.60
2018-12-18T10:33:45.010Z,35.90
2018-12-18T10:34:45.000Z,34.50
2018-12-18T10:35:44.989Z,34.90
2018-12-18T10:36:44.991Z,33.70
2018-12-18T10:37:44.980Z,38.70
2018-12-18T10:38:44.981Z,35.00
2018-12-18T10:39:44.964Z,34.60
2018-12-18T10:40:44.939Z,36.90
2018-12-18T10:41:44.945Z,35.00
2018-12-18T10:42:44.919Z,35.20
2018-12-18T10:43:44.912Z,34.90
2018-12-18T10:44:44.907Z,32.20
2018-12-18T10:45:44.898Z,31.00
2018-12-18T10:46:44.874Z,35.30
2018-12-18T10:47:44.870Z,32.10
2018-12-18T10:48:44.907Z,34.10
2018-12-18T10:49:44.858Z,33.80
2018-12-18T10:50:44.843Z,33.90
2018-12-18T10:51:44.826Z,32.80
2018-12-18T10:52:44.806Z,34.20
2018-12-18T10:53:44.796Z,33.80
2018-12-18T10:54:44.829Z,32.20
2018-12-18T10:55:44.789Z,34.60
2018-12-18T10:56:44.772Z,32.90
2018-12-18T10:57:44.762Z,32.80
2018-12-18T10:58:44.750Z,32.90
2018-12-18T10:59:44.746Z,32.90
2018-12-18T11:00:44.728Z,33.50
2018-12-18T11:01:44.718Z,33.10
2018-12-18T11:02:44.712Z,32.90
2018-12-18T11:03:44.696Z,31.00
2018-12-18T11:04:44.676Z,32.30
2018-12-18T11:05:44.679Z,30.90
2018-12-18T11:06:44.670Z,31.00
2018-12-18T11:07:44.642Z,30.10
2018-12-18T11:08:44.646Z,30.50
2018-12-18T11:09:44.626Z,32.40
2018-12-18T11:10:44.633Z,32.40
2018-12-18T11:11:44.599Z,31.20
2018-12-18T11:12:44.603Z,30.10
2018-12-18T11:13:44.592Z,29.10
2018-12-18T11:14:44.569Z,32.00
2018-12-18T11:15:44.580Z,31.50
2018-12-18T11:16:44.561Z,30.30
2018-12-18T11:17:44.543Z,31.70
2018-12-18T11:18:44.539Z,33.50
2018-12-18T11:19:44.523Z,31.50
2018-12-18T11:20:44.522Z,29.60
2018-12-18T11:21:44.499Z,32.80
2018-12-18T11:22:44.484Z,30.60
2018-12-18T11:23:44.473Z,29.00
2018-12-18T11:24:44.460Z,31.40
2018-12-18T11:25:44.480Z,34.20
2018-12-18T11:26:44.441Z,31.20
2018-12-18T11:27:44.438Z,29.50
2018-12-18T11:28:44.420Z,29.80
2018-12-18T11:29:44.409Z,31.10
2018-12-18T11:30:44.398Z,30.20
2018-12-18T11:31:44.417Z,30.80
2018-12-18T11:32:44.382Z,29.10
2018-12-18T11:33:44.378Z,32.00
2018-12-18T11:34:44.369Z,29.50
2018-12-18T11:35:44.339Z,29.20
2018-12-18T11:36:44.332Z,27.50
2018-12-18T11:37:44.346Z,31.20
2018-12-18T11:38:44.315Z,33.40
2018-12-18T11:39:44.302Z,28.40
2018-12-18T11:40:44.300Z,28.70
2018-12-18T11:41:44.272Z,27.10
2018-12-18T11:42:44.297Z,30.20
2018-12-18T11:43:44.255Z,31.80
2018-12-18T11:44:44.250Z,30.30
2018-12-18T11:45:44.229Z,28.60
2018-12-18T11:46:44.231Z,27.60
2018-12-18T11:47:44.219Z,29.50
2018-12-18T11:48:44.225Z,28.20
2018-12-18T11:49:44.202Z,29.00
2018-12-18T11:50:44.181Z,27.40
2018-12-18T11:51:44.180Z,27.30
2018-12-18T11:52:44.170Z,29.00
2018-12-18T11:53:44.152Z,28.20
2018-12-18T11:54:44.147Z,27.80
2018-12-18T11:55:44.140Z,28.30
2018-12-18T11:56:44.124Z,26.40
2018-12-18T11:57:44.107Z,25.40
2018-12-18T11:58:44.089Z,30.50
2018-12-18T11:59:44.098Z,28.80
2018-12-18T12:00:44.083Z,27.30
2018-12-18T12:01:44.056Z,26.90
2018-12-18T12:02:44.048Z,29.30
2018-12-18T12:03:44.038Z,27.40
2018-12-18T12:04:44.047Z,30.80
2018-12-18T12:05:44.018Z,29.10
2018-12-18T12:06:44.008Z,27.70
2018-12-18T12:07:44.000Z,28.80
2018-12-18T12:08:43.992Z,27.70
2018-12-18T12:09:43.981Z,29.00
2018-12-18T12:10:43.972Z,27.20
2018-12-18T12:11:43.962Z,31.30
2018-12-18T12:12:43.959Z,29.30
2018-12-18T12:13:43.934Z,31.20
2018-12-18T12:14:43.965Z,28.40
2018-12-18T12:15:43.908Z,27.80
2018-12-18T12:16:43.905Z,29.00
2018-12-18T12:17:43.906Z,29.10
2018-12-18T12:18:43.895Z,29.20
2018-12-18T12:19:43.863Z,27.70
2018-12-18T12:20:43.865Z,31.90
2018-12-18T12:21:43.846Z,30.10
2018-12-18T12:22:43.841Z,29.50
2018-12-18T12:23:43.846Z,31.30
2018-12-18T12:24:43.821Z,30.50
2018-12-18T12:25:43.807Z,30.30
2018-12-18T12:26:43.797Z,33.00
2018-12-18T12:27:43.790Z,31.80
2018-12-18T12:28:43.781Z,30.00
2018-12-18T12:29:43.764Z,32.90
2018-12-18T12:30:43.758Z,28.00
2018-12-18T12:31:43.738Z,32.00
2018-12-18T12:32:43.737Z,28.70
2018-12-18T12:33:43.729Z,27.40
2018-12-18T12:34:43.717Z,30.90
2018-12-18T12:35:43.760Z,26.70
2018-12-18T12:36:43.684Z,27.40
2018-12-18T12:37:43.684Z,28.60
2018-12-18T12:38:43.672Z,25.60
2018-12-18T12:39:43.672Z,25.90
2018-12-18T12:40:43.660Z,26.70
2018-12-18T12:41:43.640Z,29.10
2018-12-18T12:42:43.624Z,26.70
2018-12-18T12:43:43.618Z,28.20
2018-12-18T12:44:43.613Z,27.70
2018-12-18T12:45:43.597Z,28.70
2018-12-18T12:46:43.589Z,26.20
2018-12-18T12:47:43.565Z,28.20
2018-12-18T12:48:43.557Z,28.40
2018-12-18T12:49:43.553Z,25.30
2018-12-18T12:50:45.240Z,29.30
2018-12-18T12:51:43.516Z,28.50
2018-12-18T12:52:43.505Z,29.00
2018-12-18T12:53:43.510Z,26.80